Terminal Aerodrome Forecast
Issued by NWS Portland, OR

Home | Current Version | Previous Version | Text Only | Print | Product List | Glossary On
Versions: 1 2 3 4 5 6 7 8 9 10 11 12 13 14 15 16 17
000
FTUS46 KPQR 291720
TAFHIO
TAF
KHIO 291720Z 2918/3018 VRB05KT P6SM SCT150 BKN250
     FM300000 22006KT P6SM BKN080 OVC150
     FM300500 20010KT P6SM -RA SCT040 OVC080
     FM300630 20013KT P6SM -RA SCT025 OVC040
     FM300800 21010KT P6SM -RA BKN025 OVC040
     FM301500 29007KT P6SM VCSH SCT025 BKN040=

USA.gov is the U.S. government's official web portal to all federal, state and local government web resources and services.